Time;durP1;ratioP1;P1;durP2;ratioP2;P2;SDS_P1;SDS_P2;PMS_P1;PMS_P2;Temp;Humidity;BMP_temperature;BMP_pressure;BME280_temperature;BME280_humidity;BME280_pressure;Samples;Min_cycle;Max_cycle;Signal;HPM_P1;HPM_P2
2023/03/28 00:01:25;;;;;;;;;;;18.80;30.20;;;;;;1542932;77;1559;-59
2023/03/28 00:03:28;;;;;;;;;;;18.80;30.20;;;;;;1535068;77;1161;-61
2023/03/28 00:05:30;;;;;;;;;;;18.70;30.10;;;;;;1528381;77;757;-59
2023/03/28 00:07:32;;;;;;;;;;;18.70;30.10;;;;;;1546797;77;751;-63
2023/03/28 00:09:34;;;;;;;;;;;18.90;30.30;;;;;;1526729;77;1931;-59
2023/03/28 00:11:35;;;;;;;;;;;18.80;30.10;;;;;;1538946;77;697;-59
2023/03/28 00:13:37;;;;;;;;;;;18.80;30.20;;;;;;1545857;77;1158;-62
2023/03/28 00:15:40;;;;;;;;;;;18.80;30.20;;;;;;1531632;77;1475;-61
2023/03/28 00:17:42;;;;;;;;;;;18.70;30.20;;;;;;1537805;77;744;-62
2023/03/28 00:19:45;;;;;;;;;;;18.70;30.20;;;;;;1534893;77;779;-60
2023/03/28 00:21:48;;;;;;;;;;;18.70;30.20;;;;;;1535132;77;806;-59
2023/03/28 00:23:53;;;;;;;;;;;18.40;30.00;;;;;;1540925;77;1147;-60
2023/03/28 00:25:56;;;;;;;;;;;18.70;30.20;;;;;;1529674;77;625;-60
2023/03/28 00:27:57;;;;;;;;;;;18.70;30.20;;;;;;1534375;77;1905;-62
2023/03/28 00:30:00;;;;;;;;;;;18.70;30.20;;;;;;1536978;77;1536;-60
2023/03/28 00:32:01;;;;;;;;;;;18.70;30.30;;;;;;1528941;77;707;-63
2023/03/28 00:34:04;;;;;;;;;;;18.70;30.30;;;;;;1543033;77;1131;-59
2023/03/28 00:36:09;;;;;;;;;;;18.80;30.20;;;;;;1546286;75;727;-60
2023/03/28 00:38:12;;;;;;;;;;;18.70;30.20;;;;;;1533929;77;1755;-60
2023/03/28 00:40:13;;;;;;;;;;;18.70;30.30;;;;;;1528062;77;1700;-60
2023/03/28 00:42:16;;;;;;;;;;;18.80;30.20;;;;;;1540638;77;1134;-60
2023/03/28 00:44:36;;;;;;;;;;;18.70;30.20;;;;;;1538220;77;1406;-60
2023/03/28 00:46:39;;;;;;;;;;;18.70;30.00;;;;;;1542499;77;831;-58
2023/03/28 00:48:42;;;;;;;;;;;18.80;30.30;;;;;;1538085;77;1946;-59
2023/03/28 00:50:47;;;;;;;;;;;18.70;30.20;;;;;;1538659;77;697;-58
2023/03/28 00:52:57;;;;;;;;;;;18.70;30.10;;;;;;1546521;77;1145;-60
2023/03/28 00:54:59;;;;;;;;;;;18.70;30.20;;;;;;1530018;77;720;-59
2023/03/28 00:57:01;;;;;;;;;;;18.70;30.20;;;;;;1544905;77;1380;-59
2023/03/28 00:59:05;;;;;;;;;;;18.70;30.20;;;;;;1540289;77;744;-61
2023/03/28 01:01:09;;;;;;;;;;;18.70;30.20;;;;;;1540707;77;735;-59
2023/03/28 01:03:12;;;;;;;;;;;18.70;30.20;;;;;;1541295;77;1665;-59
2023/03/28 01:05:14;;;;;;;;;;;18.70;30.10;;;;;;1543564;77;786;-62
2023/03/28 01:07:17;;;;;;;;;;;18.60;30.00;;;;;;1538198;77;720;-59
2023/03/28 01:09:20;;;;;;;;;;;18.70;30.10;;;;;;1546592;77;1898;-60
2023/03/28 01:11:22;;;;;;;;;;;18.60;30.00;;;;;;1539724;77;1472;-59
2023/03/28 01:13:28;;;;;;;;;;;18.60;30.00;;;;;;1532900;77;1248;-63
2023/03/28 01:15:29;;;;;;;;;;;18.80;30.20;;;;;;1531638;77;809;-59
2023/03/28 01:17:31;;;;;;;;;;;18.70;30.20;;;;;;1531328;77;566;-59
2023/03/28 01:19:41;;;;;;;;;;;18.70;30.10;;;;;;1542692;77;750;-59
2023/03/28 01:21:48;;;;;;;;;;;18.70;30.20;;;;;;1544061;77;1571;-61
2023/03/28 01:24:01;;;;;;;;;;;18.60;29.90;;;;;;1541705;77;1178;-59
2023/03/28 01:26:05;;;;;;;;;;;18.60;29.90;;;;;;1545141;77;1947;-59
2023/03/28 01:28:17;;;;;;;;;;;18.60;29.90;;;;;;1543637;77;1917;-59
2023/03/28 01:30:21;;;;;;;;;;;18.60;29.90;;;;;;1533544;77;1910;-59
2023/03/28 01:32:30;;;;;;;;;;;18.60;30.00;;;;;;1535605;77;1939;-59
2023/03/28 01:34:52;;;;;;;;;;;18.60;29.90;;;;;;1542933;77;752;-60
2023/03/28 01:36:56;;;;;;;;;;;18.60;29.90;;;;;;1508875;78;1042;-59
2023/03/28 01:39:03;;;;;;;;;;;18.60;29.90;;;;;;1498019;77;1955;-59
2023/03/28 01:41:07;;;;;;;;;;;18.60;29.90;;;;;;1501366;79;819;-59
2023/03/28 01:43:13;;;;;;;;;;;18.60;29.90;;;;;;1517184;77;2127;-59
2023/03/28 01:45:19;;;;;;;;;;;18.60;30.00;;;;;;1508892;77;715;-60
2023/03/28 01:47:23;;;;;;;;;;;18.60;29.90;;;;;;1520551;77;703;-59
2023/03/28 01:49:26;;;;;;;;;;;18.60;29.80;;;;;;1520634;77;1929;-60
2023/03/28 01:51:36;;;;;;;;;;;18.60;29.90;;;;;;1517381;77;1970;-60
2023/03/28 01:53:42;;;;;;;;;;;18.60;29.70;;;;;;1515566;77;1595;-59
2023/03/28 01:55:55;;;;;;;;;;;18.60;29.80;;;;;;1512411;77;669;-59
2023/03/28 01:58:13;;;;;;;;;;;18.60;29.80;;;;;;1530039;77;716;-59
2023/03/28 02:00:20;;;;;;;;;;;18.60;29.90;;;;;;1528185;77;699;-59
2023/03/28 02:02:23;;;;;;;;;;;18.60;29.90;;;;;;1524765;77;1682;-62
2023/03/28 02:04:25;;;;;;;;;;;18.90;30.00;;;;;;1525572;77;661;-60
2023/03/28 02:06:27;;;;;;;;;;;18.60;29.70;;;;;;1529133;77;757;-59
2023/03/28 02:08:29;;;;;;;;;;;18.60;29.80;;;;;;1518945;77;1964;-60
2023/03/28 02:10:31;;;;;;;;;;;18.60;29.80;;;;;;1524686;77;733;-61
2023/03/28 02:12:37;;;;;;;;;;;18.50;29.80;;;;;;1529132;77;1142;-59
2023/03/28 02:14:40;;;;;;;;;;;18.60;29.80;;;;;;1524608;77;717;-59
2023/03/28 02:16:42;;;;;;;;;;;18.60;29.70;;;;;;1529955;77;797;-60
2023/03/28 02:18:46;;;;;;;;;;;18.60;29.80;;;;;;1518874;77;728;-60
2023/03/28 02:20:49;;;;;;;;;;;18.60;29.70;;;;;;1511365;77;674;-60
2023/03/28 02:22:52;;;;;;;;;;;18.60;29.70;;;;;;1528692;77;1172;-59
2023/03/28 02:24:55;;;;;;;;;;;18.60;29.10;;;;;;1517582;77;634;-59
2023/03/28 02:26:57;;;;;;;;;;;18.60;29.70;;;;;;1516053;77;675;-59
2023/03/28 02:28:58;;;;;;;;;;;18.60;29.70;;;;;;1514808;77;1921;-60
2023/03/28 02:31:01;;;;;;;;;;;18.60;29.70;;;;;;1529181;77;644;-59
2023/03/28 02:33:05;;;;;;;;;;;18.60;28.80;;;;;;1523814;77;1110;-60
2023/03/28 02:35:07;;;;;;;;;;;18.50;29.60;;;;;;1515003;77;1450;-62
2023/03/28 02:37:20;;;;;;;;;;;18.60;28.90;;;;;;1529822;77;718;-62
2023/03/28 02:39:29;;;;;;;;;;;18.60;29.40;;;;;;1485843;77;1669;-59
2023/03/28 02:41:36;;;;;;;;;;;18.60;29.50;;;;;;1521405;77;708;-61
2023/03/28 02:43:45;;;;;;;;;;;18.50;29.80;;;;;;1527631;77;1932;-58
2023/03/28 02:45:57;;;;;;;;;;;18.50;29.70;;;;;;1526242;77;970;-59
2023/03/28 02:48:01;;;;;;;;;;;18.50;29.60;;;;;;1517240;77;776;-59
2023/03/28 02:50:10;;;;;;;;;;;18.50;29.70;;;;;;1527901;77;1968;-60
2023/03/28 02:52:20;;;;;;;;;;;18.50;29.60;;;;;;1519226;77;2183;-58
2023/03/28 02:54:26;;;;;;;;;;;18.60;29.70;;;;;;1529564;77;687;-60
2023/03/28 02:56:30;;;;;;;;;;;18.50;29.70;;;;;;1515464;77;1910;-59
2023/03/28 02:58:40;;;;;;;;;;;18.50;29.50;;;;;;1529718;77;571;-59
2023/03/28 03:00:42;;;;;;;;;;;18.50;29.50;;;;;;1524296;77;671;-59
2023/03/28 03:02:46;;;;;;;;;;;18.50;29.50;;;;;;1522986;77;1135;-59
2023/03/28 03:04:56;;;;;;;;;;;18.50;29.60;;;;;;1525008;77;1380;-59
2023/03/28 03:06:52;;;;;;;;;;;18.60;29.50;;;;;;1526242;77;1611;-59
2023/03/28 03:08:54;;;;;;;;;;;18.70;29.60;;;;;;1517857;77;1955;-58
2023/03/28 03:10:56;;;;;;;;;;;18.50;29.40;;;;;;1528386;77;687;-59
2023/03/28 03:12:58;;;;;;;;;;;18.60;29.40;;;;;;1524123;77;1159;-61
2023/03/28 03:15:00;;;;;;;;;;;18.50;29.40;;;;;;1524371;77;736;-61
2023/03/28 03:17:04;;;;;;;;;;;18.60;29.40;;;;;;1523710;77;825;-60
2023/03/28 03:19:06;;;;;;;;;;;18.60;29.30;;;;;;1511005;77;1482;-60
2023/03/28 03:21:08;;;;;;;;;;;18.50;29.40;;;;;;1518285;77;657;-61
2023/03/28 03:23:10;;;;;;;;;;;18.60;29.40;;;;;;1521931;77;1194;-59
2023/03/28 03:25:12;;;;;;;;;;;18.60;29.40;;;;;;1515354;77;722;-60
2023/03/28 03:27:14;;;;;;;;;;;18.50;29.40;;;;;;1517492;77;735;-59
2023/03/28 03:29:16;;;;;;;;;;;18.60;29.40;;;;;;1524556;77;1901;-58
2023/03/28 03:31:18;;;;;;;;;;;18.60;29.40;;;;;;1524892;77;1562;-62
2023/03/28 03:33:20;;;;;;;;;;;18.60;29.40;;;;;;1523701;77;1183;-59
2023/03/28 03:35:22;;;;;;;;;;;18.60;29.40;;;;;;1525969;77;813;-59
2023/03/28 03:37:24;;;;;;;;;;;18.60;29.40;;;;;;1523569;77;686;-59
2023/03/28 03:39:26;;;;;;;;;;;18.60;29.40;;;;;;1518962;77;708;-60
2023/03/28 03:41:28;;;;;;;;;;;18.60;29.40;;;;;;1529421;77;715;-59
2023/03/28 03:43:30;;;;;;;;;;;18.60;29.40;;;;;;1528238;77;1184;-59
2023/03/28 03:45:32;;;;;;;;;;;18.60;29.50;;;;;;1525663;77;1495;-59
2023/03/28 03:47:34;;;;;;;;;;;18.60;29.40;;;;;;1517184;77;797;-59
2023/03/28 03:49:36;;;;;;;;;;;18.60;29.40;;;;;;1520435;77;1932;-58
2023/03/28 03:51:38;;;;;;;;;;;18.60;29.40;;;;;;1519572;77;787;-60
2023/03/28 03:53:40;;;;;;;;;;;18.60;29.40;;;;;;1517772;77;1147;-59
2023/03/28 03:55:42;;;;;;;;;;;18.60;29.40;;;;;;1525962;77;987;-60
2023/03/28 03:57:44;;;;;;;;;;;18.60;29.40;;;;;;1529227;77;743;-58
2023/03/28 03:59:46;;;;;;;;;;;18.60;29.30;;;;;;1524817;77;1354;-59
2023/03/28 04:01:48;;;;;;;;;;;18.60;29.40;;;;;;1520718;76;658;-59
2023/03/28 04:03:50;;;;;;;;;;;18.60;29.40;;;;;;1529170;77;1149;-59
2023/03/28 04:05:53;;;;;;;;;;;18.50;29.40;;;;;;1518420;77;754;-59
2023/03/28 04:07:58;;;;;;;;;;;18.50;29.40;;;;;;1537940;77;792;-60
2023/03/28 04:09:59;;;;;;;;;;;18.50;29.30;;;;;;1535855;77;2121;-59
2023/03/28 04:12:01;;;;;;;;;;;18.60;29.40;;;;;;1533891;77;731;-61
2023/03/28 04:14:03;;;;;;;;;;;18.50;29.30;;;;;;1536560;77;1555;-61
2023/03/28 04:16:05;;;;;;;;;;;18.60;29.40;;;;;;1529003;77;759;-59
2023/03/28 04:18:07;;;;;;;;;;;18.60;29.30;;;;;;1532661;77;817;-59
2023/03/28 04:20:12;;;;;;;;;;;18.60;29.30;;;;;;1541260;77;873;-59
2023/03/28 04:22:17;;;;;;;;;;;18.60;29.40;;;;;;1542816;77;629;-60
2023/03/28 04:24:19;;;;;;;;;;;18.60;29.50;;;;;;1529950;77;1541;-61
2023/03/28 04:26:34;;;;;;;;;;;18.60;29.50;;;;;;1537604;77;756;-61
2023/03/28 04:28:26;;;;;;;;;;;18.50;29.40;;;;;;1529234;77;1605;-59
2023/03/28 04:30:28;;;;;;;;;;;18.60;29.50;;;;;;1537235;77;1915;-59
2023/03/28 04:32:34;;;;;;;;;;;18.60;29.50;;;;;;1546082;77;1150;-61
2023/03/28 04:34:34;;;;;;;;;;;18.60;29.50;;;;;;1546207;77;1410;-61
2023/03/28 04:36:36;;;;;;;;;;;18.60;29.50;;;;;;1540984;77;777;-62
2023/03/28 04:38:40;;;;;;;;;;;18.70;29.70;;;;;;1540627;77;706;-59
2023/03/28 04:40:43;;;;;;;;;;;18.60;29.60;;;;;;1542520;77;1356;-59
2023/03/28 04:42:45;;;;;;;;;;;18.60;29.70;;;;;;1536095;77;1504;-59
2023/03/28 04:44:47;;;;;;;;;;;18.60;29.70;;;;;;1534283;77;737;-61
2023/03/28 04:46:50;;;;;;;;;;;18.60;29.70;;;;;;1538309;77;665;-60
2023/03/28 04:48:51;;;;;;;;;;;18.60;29.70;;;;;;1533910;77;670;-59
2023/03/28 04:50:53;;;;;;;;;;;18.70;29.90;;;;;;1541404;77;1946;-59
2023/03/28 04:52:55;;;;;;;;;;;18.70;29.90;;;;;;1546146;77;1181;-59
2023/03/28 04:54:57;;;;;;;;;;;18.70;29.90;;;;;;1534264;77;815;-60
2023/03/28 04:56:59;;;;;;;;;;;18.60;29.80;;;;;;1544591;77;1553;-60
2023/03/28 04:59:01;;;;;;;;;;;18.70;30.00;;;;;;1538812;77;712;-58
2023/03/28 05:01:04;;;;;;;;;;;18.70;30.00;;;;;;1537016;77;743;-59
2023/03/28 05:03:07;;;;;;;;;;;18.70;30.00;;;;;;1542494;77;1141;-58
2023/03/28 05:05:09;;;;;;;;;;;18.70;30.00;;;;;;1537543;77;1953;-59
2023/03/28 05:07:11;;;;;;;;;;;18.70;30.00;;;;;;1544973;77;754;-62
2023/03/28 05:09:13;;;;;;;;;;;18.70;29.90;;;;;;1535925;77;844;-61
2023/03/28 05:11:15;;;;;;;;;;;18.70;30.00;;;;;;1535966;77;1937;-59
2023/03/28 05:13:17;;;;;;;;;;;18.70;29.90;;;;;;1535982;77;1086;-59
2023/03/28 05:15:19;;;;;;;;;;;18.60;29.80;;;;;;1538117;77;773;-59
2023/03/28 05:17:21;;;;;;;;;;;18.70;29.80;;;;;;1546925;77;614;-59
2023/03/28 05:19:24;;;;;;;;;;;18.70;29.70;;;;;;1547048;77;876;-60
2023/03/28 05:21:25;;;;;;;;;;;18.70;29.70;;;;;;1541998;77;707;-59
2023/03/28 05:23:27;;;;;;;;;;;18.70;29.70;;;;;;1534257;77;1212;-59
2023/03/28 05:25:29;;;;;;;;;;;18.70;29.70;;;;;;1544739;77;1586;-58
2023/03/28 05:27:31;;;;;;;;;;;18.70;29.70;;;;;;1538570;77;691;-61
2023/03/28 05:29:33;;;;;;;;;;;18.70;29.70;;;;;;1537321;77;1939;-60
2023/03/28 05:31:35;;;;;;;;;;;18.70;29.70;;;;;;1546926;77;688;-59
2023/03/28 05:33:37;;;;;;;;;;;18.70;29.70;;;;;;1547341;77;1148;-60
2023/03/28 05:35:39;;;;;;;;;;;18.70;29.70;;;;;;1541436;77;665;-59
2023/03/28 05:37:41;;;;;;;;;;;18.70;29.70;;;;;;1546294;77;753;-62
2023/03/28 05:39:43;;;;;;;;;;;18.70;29.60;;;;;;1528804;77;696;-60
2023/03/28 05:41:45;;;;;;;;;;;18.70;29.60;;;;;;1547317;77;681;-61
2023/03/28 05:43:47;;;;;;;;;;;18.70;29.60;;;;;;1531722;77;1157;-59
2023/03/28 05:45:49;;;;;;;;;;;18.70;29.50;;;;;;1545924;77;795;-59
2023/03/28 05:47:51;;;;;;;;;;;18.70;29.50;;;;;;1534896;77;708;-61
2023/03/28 05:49:53;;;;;;;;;;;18.70;29.50;;;;;;1525661;77;1914;-59
2023/03/28 05:51:55;;;;;;;;;;;18.70;29.40;;;;;;1531672;77;1604;-60
2023/03/28 05:53:57;;;;;;;;;;;18.70;29.40;;;;;;1544206;77;1126;-59
2023/03/28 05:55:58;;;;;;;;;;;18.60;29.40;;;;;;1543037;77;750;-59
2023/03/28 05:58:00;;;;;;;;;;;18.70;29.40;;;;;;1536648;77;746;-59
2023/03/28 06:00:12;;;;;;;;;;;18.70;29.50;;;;;;1541965;77;726;-59
2023/03/28 06:02:08;;;;;;;;;;;18.60;29.40;;;;;;1528344;77;1495;-59
2023/03/28 06:04:10;;;;;;;;;;;18.70;29.40;;;;;;1533257;77;1837;-60
2023/03/28 06:06:12;;;;;;;;;;;18.60;29.40;;;;;;1536021;77;1366;-59
2023/03/28 06:08:14;;;;;;;;;;;18.70;29.50;;;;;;1536173;77;720;-59
2023/03/28 06:10:16;;;;;;;;;;;18.60;29.40;;;;;;1547237;77;1939;-60
2023/03/28 06:12:18;;;;;;;;;;;18.70;29.40;;;;;;1546042;77;1153;-62
2023/03/28 06:14:20;;;;;;;;;;;18.80;29.50;;;;;;1542548;77;622;-59
2023/03/28 06:16:21;;;;;;;;;;;18.60;29.30;;;;;;1533629;77;819;-61
2023/03/28 06:18:23;;;;;;;;;;;18.60;29.20;;;;;;1543015;77;806;-59
2023/03/28 06:20:25;;;;;;;;;;;18.70;29.50;;;;;;1536349;77;1569;-59
2023/03/28 06:22:27;;;;;;;;;;;18.60;29.40;;;;;;1536385;77;1217;-60
2023/03/28 06:24:29;;;;;;;;;;;18.60;29.30;;;;;;1544007;77;792;-59
2023/03/28 06:26:31;;;;;;;;;;;18.60;29.40;;;;;;1536701;77;778;-59
2023/03/28 06:28:33;;;;;;;;;;;18.60;29.30;;;;;;1546926;77;721;-61
2023/03/28 06:30:35;;;;;;;;;;;18.60;29.30;;;;;;1546542;77;1921;-59
2023/03/28 06:32:37;;;;;;;;;;;18.60;29.20;;;;;;1542003;77;1162;-59
2023/03/28 06:34:38;;;;;;;;;;;18.60;29.30;;;;;;1541946;77;1339;-59
2023/03/28 06:36:40;;;;;;;;;;;18.70;29.40;;;;;;1534970;77;675;-59
2023/03/28 06:38:42;;;;;;;;;;;18.60;29.20;;;;;;1529372;77;738;-59
2023/03/28 06:40:44;;;;;;;;;;;18.70;29.30;;;;;;1533066;77;668;-60
2023/03/28 06:42:46;;;;;;;;;;;18.60;29.10;;;;;;1529046;77;1149;-62
2023/03/28 06:44:48;;;;;;;;;;;18.70;29.20;;;;;;1532529;77;726;-59
2023/03/28 06:46:50;;;;;;;;;;;18.70;29.10;;;;;;1547123;77;695;-59
2023/03/28 06:48:52;;;;;;;;;;;18.70;29.10;;;;;;1534757;77;1476;-59
2023/03/28 06:50:54;;;;;;;;;;;18.60;28.90;;;;;;1539503;77;1897;-62
2023/03/28 06:52:56;;;;;;;;;;;18.70;29.10;;;;;;1533368;77;1166;-59
2023/03/28 06:54:59;;;;;;;;;;;18.70;29.10;;;;;;1525602;77;652;-59
2023/03/28 06:57:01;;;;;;;;;;;18.60;28.90;;;;;;1542383;77;768;-60
2023/03/28 06:59:03;;;;;;;;;;;18.60;28.90;;;;;;1544112;77;796;-61
2023/03/28 07:01:05;;;;;;;;;;;18.60;28.80;;;;;;1540222;77;771;-61
2023/03/28 07:03:07;;;;;;;;;;;18.70;28.90;;;;;;1535968;77;1449;-60
2023/03/28 07:05:10;;;;;;;;;;;18.60;28.80;;;;;;1525321;77;745;-58
2023/03/28 07:07:12;;;;;;;;;;;18.60;28.90;;;;;;1543683;77;749;-59
2023/03/28 07:09:13;;;;;;;;;;;18.60;28.90;;;;;;1540844;77;741;-61
2023/03/28 07:11:15;;;;;;;;;;;18.60;28.80;;;;;;1546732;77;1932;-62
2023/03/28 07:13:17;;;;;;;;;;;18.60;29.00;;;;;;1541333;77;1131;-59
2023/03/28 07:15:19;;;;;;;;;;;18.60;28.80;;;;;;1545150;77;758;-59
2023/03/28 07:17:21;;;;;;;;;;;18.60;28.90;;;;;;1528227;77;1362;-61
2023/03/28 07:19:23;;;;;;;;;;;18.60;28.80;;;;;;1542832;77;815;-60
2023/03/28 07:21:25;;;;;;;;;;;18.60;28.60;;;;;;1541289;77;731;-59
2023/03/28 07:23:27;;;;;;;;;;;18.50;28.60;;;;;;1547141;77;1150;-59
2023/03/28 07:25:29;;;;;;;;;;;18.50;28.80;;;;;;1538454;77;1037;-59
2023/03/28 07:27:30;;;;;;;;;;;18.60;28.50;;;;;;1530766;77;660;-60
2023/03/28 07:29:32;;;;;;;;;;;18.60;28.70;;;;;;1537709;77;762;-59
2023/03/28 07:31:34;;;;;;;;;;;18.50;28.60;;;;;;1538051;77;1937;-59
2023/03/28 07:33:36;;;;;;;;;;;18.60;28.50;;;;;;1535111;77;1159;-60
2023/03/28 07:35:39;;;;;;;;;;;18.60;28.60;;;;;;1544368;77;751;-61
2023/03/28 07:37:41;;;;;;;;;;;18.60;28.50;;;;;;1538692;77;790;-62
2023/03/28 07:39:43;;;;;;;;;;;18.70;28.60;;;;;;1516622;78;806;-60
2023/03/28 07:41:45;;;;;;;;;;;18.60;28.50;;;;;;1546432;77;658;-60
2023/03/28 07:43:47;;;;;;;;;;;18.60;28.50;;;;;;1539355;77;1137;-59
2023/03/28 07:45:49;;;;;;;;;;;18.70;28.60;;;;;;1540936;77;1310;-59
2023/03/28 07:47:51;;;;;;;;;;;18.70;28.50;;;;;;1538320;77;693;-59
2023/03/28 07:49:53;;;;;;;;;;;18.60;28.40;;;;;;1539104;77;765;-59
2023/03/28 07:51:55;;;;;;;;;;;18.60;28.40;;;;;;1534117;77;1944;-59
2023/03/28 07:53:57;;;;;;;;;;;18.60;28.30;;;;;;1534221;77;1129;-61
2023/03/28 07:55:59;;;;;;;;;;;18.70;28.40;;;;;;1534249;77;665;-59
2023/03/28 07:58:01;;;;;;;;;;;18.60;27.80;;;;;;1542014;77;748;-59
2023/03/28 08:00:12;;;;;;;;;;;18.60;28.30;;;;;;1536637;77;1580;-60
2023/03/28 08:02:09;;;;;;;;;;;18.60;28.30;;;;;;1539048;77;1659;-59
2023/03/28 08:04:11;;;;;;;;;;;18.60;28.10;;;;;;1535006;77;1118;-60
2023/03/28 08:06:14;;;;;;;;;;;18.70;28.50;;;;;;1531055;77;694;-60
2023/03/28 08:08:16;;;;;;;;;;;18.60;28.40;;;;;;1529821;77;693;-59
2023/03/28 08:10:17;;;;;;;;;;;18.50;28.20;;;;;;1533628;77;815;-60
2023/03/28 08:12:20;;;;;;;;;;;18.60;28.10;;;;;;1535394;77;1955;-60
2023/03/28 08:14:22;;;;;;;;;;;18.60;28.20;;;;;;1540856;77;1738;-59
2023/03/28 08:16:24;;;;;;;;;;;18.60;28.00;;;;;;1546520;77;603;-61
2023/03/28 08:18:25;;;;;;;;;;;18.60;28.10;;;;;;1543769;77;752;-62
2023/03/28 08:20:27;;;;;;;;;;;18.60;28.20;;;;;;1545825;77;782;-59
2023/03/28 08:22:29;;;;;;;;;;;18.60;28.10;;;;;;1541677;77;1165;-59
2023/03/28 08:24:31;;;;;;;;;;;18.60;28.20;;;;;;1546999;77;674;-61
2023/03/28 08:26:33;;;;;;;;;;;18.60;28.10;;;;;;1545687;77;1380;-60
2023/03/28 08:28:35;;;;;;;;;;;18.60;28.00;;;;;;1534564;77;775;-59
2023/03/28 08:30:37;;;;;;;;;;;18.60;27.90;;;;;;1547270;77;1942;-59
2023/03/28 08:32:39;;;;;;;;;;;18.50;27.30;;;;;;1536158;77;1170;-59
2023/03/28 08:34:41;;;;;;;;;;;18.50;28.00;;;;;;1537034;77;787;-59
2023/03/28 08:36:43;;;;;;;;;;;18.60;27.90;;;;;;1539051;77;617;-59
2023/03/28 08:38:45;;;;;;;;;;;18.60;27.80;;;;;;1526561;77;712;-59
2023/03/28 08:40:48;;;;;;;;;;;18.60;27.70;;;;;;1538048;77;1541;-59
2023/03/28 08:42:58;;;;;;;;;;;18.60;27.80;;;;;;1541628;77;1165;-59
2023/03/28 08:45:17;;;;;;;;;;;18.60;27.60;;;;;;1539734;77;1713;-59
2023/03/28 08:47:25;;;;;;;;;;;18.60;27.60;;;;;;1515671;78;1007;-59
2023/03/28 08:49:27;;;;;;;;;;;18.60;27.60;;;;;;1526196;77;932;-59
2023/03/28 08:51:30;;;;;;;;;;;18.60;27.60;;;;;;1535519;77;1940;-59
2023/03/28 08:53:36;;;;;;;;;;;18.60;27.60;;;;;;1538846;77;1149;-59
2023/03/28 08:55:41;;;;;;;;;;;18.50;27.70;;;;;;1540593;77;1790;-60
2023/03/28 08:57:43;;;;;;;;;;;18.50;27.70;;;;;;1543965;77;808;-60
2023/03/28 08:59:55;;;;;;;;;;;18.50;27.70;;;;;;1543669;77;746;-59
2023/03/28 09:01:57;;;;;;;;;;;18.50;27.80;;;;;;1498604;77;1048;-63
2023/03/28 09:03:59;;;;;;;;;;;18.60;27.70;;;;;;1540388;77;1149;-60
2023/03/28 09:06:03;;;;;;;;;;;18.50;27.70;;;;;;1531106;77;724;-61
2023/03/28 09:08:23;;;;;;;;;;;18.60;27.80;;;;;;1512473;77;1244;-59
2023/03/28 09:10:27;;;;;;;;;;;18.60;27.50;;;;;;1530464;77;1567;-60
2023/03/28 09:12:39;;;;;;;;;;;18.50;27.70;;;;;;1531568;77;1931;-60
2023/03/28 09:14:43;;;;;;;;;;;18.50;27.50;;;;;;1546697;77;744;-60
2023/03/28 09:17:05;;;;;;;;;;;18.40;27.80;;;;;;1541532;77;746;-60
2023/03/28 09:19:27;;;;;;;;;;;18.50;27.80;;;;;;1529109;77;2002;-59
2023/03/28 09:21:35;;;;;;;;;;;18.50;27.60;;;;;;1544405;77;1582;-60
2023/03/28 09:23:44;;;;;;;;;;;18.40;27.80;;;;;;1478182;77;1681;-59
2023/03/28 09:25:47;;;;;;;;;;;18.40;27.60;;;;;;1535775;77;2069;-60
2023/03/28 09:27:57;;;;;;;;;;;18.50;27.90;;;;;;1537368;77;985;-59
2023/03/28 09:30:06;;;;;;;;;;;18.50;27.80;;;;;;1547310;77;1949;-59
2023/03/28 09:32:13;;;;;;;;;;;18.50;27.90;;;;;;1541146;77;1939;-59
2023/03/28 09:34:19;;;;;;;;;;;18.50;27.90;;;;;;1522283;77;1542;-59
2023/03/28 09:36:25;;;;;;;;;;;18.50;27.80;;;;;;1546188;77;974;-59
2023/03/28 09:38:35;;;;;;;;;;;18.50;27.90;;;;;;1537421;77;1431;-59
2023/03/28 09:40:37;;;;;;;;;;;18.50;27.60;;;;;;1541940;77;1850;-59
2023/03/28 09:42:43;;;;;;;;;;;18.40;27.70;;;;;;1546419;77;1124;-59
2023/03/28 09:44:47;;;;;;;;;;;18.50;27.90;;;;;;1545443;77;747;-59
2023/03/28 09:46:49;;;;;;;;;;;18.50;28.00;;;;;;1537821;77;1071;-61
2023/03/28 09:48:51;;;;;;;;;;;18.50;27.90;;;;;;1538451;77;685;-60
2023/03/28 09:50:53;;;;;;;;;;;18.50;28.00;;;;;;1540350;77;1451;-59
2023/03/28 09:52:55;;;;;;;;;;;18.60;27.80;;;;;;1534188;77;1944;-60
2023/03/28 09:54:59;;;;;;;;;;;18.50;27.70;;;;;;1538306;77;702;-60
2023/03/28 09:57:02;;;;;;;;;;;18.60;27.70;;;;;;1530613;77;695;-59
2023/03/28 09:59:04;;;;;;;;;;;18.60;27.60;;;;;;1545251;77;716;-58
2023/03/28 10:01:07;;;;;;;;;;;18.60;27.60;;;;;;1525584;77;743;-60
2023/03/28 10:03:22;;;;;;;;;;;18.50;27.80;;;;;;1542730;77;1721;-60
2023/03/28 10:05:28;;;;;;;;;;;18.50;27.50;;;;;;1530785;77;1977;-59
2023/03/28 10:07:34;;;;;;;;;;;18.50;27.70;;;;;;1544723;77;2084;-60
2023/03/28 10:09:49;;;;;;;;;;;18.40;27.80;;;;;;1520595;78;696;-59
2023/03/28 10:11:55;;;;;;;;;;;18.50;27.90;;;;;;1513662;76;1925;-59
2023/03/28 10:13:57;;;;;;;;;;;18.50;27.70;;;;;;1525430;77;1079;-59
2023/03/28 10:15:59;;;;;;;;;;;18.50;27.80;;;;;;1526592;77;700;-59
2023/03/28 10:18:01;;;;;;;;;;;18.50;27.70;;;;;;1527315;77;671;-60
2023/03/28 10:20:05;;;;;;;;;;;18.50;27.70;;;;;;1516726;77;1519;-59
2023/03/28 10:22:08;;;;;;;;;;;18.50;27.70;;;;;;1530109;77;773;-59
2023/03/28 10:24:10;;;;;;;;;;;18.50;27.70;;;;;;1528920;77;2147;-59
2023/03/28 10:26:12;;;;;;;;;;;18.50;27.50;;;;;;1525740;77;824;-59
2023/03/28 10:28:16;;;;;;;;;;;18.60;27.60;;;;;;1504637;78;685;-59
2023/03/28 10:30:19;;;;;;;;;;;18.50;27.50;;;;;;1522037;77;709;-59
2023/03/28 10:32:25;;;;;;;;;;;18.50;27.60;;;;;;1516638;76;2398;-59
2023/03/28 10:34:28;;;;;;;;;;;18.50;27.60;;;;;;1529249;77;1523;-60
2023/03/28 10:36:31;;;;;;;;;;;18.60;27.40;;;;;;1537889;77;702;-59
2023/03/28 10:38:35;;;;;;;;;;;18.40;27.40;;;;;;1538978;77;614;-59
2023/03/28 10:40:37;;;;;;;;;;;18.40;27.60;;;;;;1539534;77;1273;-59
2023/03/28 10:42:40;;;;;;;;;;;18.40;27.60;;;;;;1546806;77;1190;-59
2023/03/28 10:44:41;;;;;;;;;;;18.50;27.80;;;;;;1531529;77;679;-60
2023/03/28 10:46:43;;;;;;;;;;;18.50;27.70;;;;;;1535524;77;673;-59
2023/03/28 10:48:49;;;;;;;;;;;18.50;27.60;;;;;;1539380;77;1515;-59
2023/03/28 10:50:52;;;;;;;;;;;18.50;27.50;;;;;;1527637;77;686;-59
2023/03/28 10:52:57;;;;;;;;;;;18.50;27.20;;;;;;1533318;77;1915;-58
2023/03/28 10:55:04;;;;;;;;;;;18.60;27.40;;;;;;1511412;77;1534;-61
2023/03/28 10:57:13;;;;;;;;;;;18.50;27.40;;;;;;1529755;77;1347;-59
2023/03/28 10:59:36;;;;;;;;;;;18.50;27.30;;;;;;1544940;77;717;-59
2023/03/28 11:01:56;;;;;;;;;;;18.50;27.50;;;;;;1528574;77;1465;-62
2023/03/28 11:04:14;;;;;;;;;;;18.40;27.10;;;;;;1541633;77;1120;-59
2023/03/28 11:06:21;;;;;;;;;;;18.30;26.50;;;;;;1538591;77;948;-61
2023/03/28 11:08:41;;;;;;;;;;;18.30;27.40;;;;;;1543988;77;768;-58
2023/03/28 11:10:44;;;;;;;;;;;18.30;27.20;;;;;;1541446;77;698;-60
2023/03/28 11:12:54;;;;;;;;;;;18.30;27.30;;;;;;1547216;77;1931;-62
2023/03/28 11:15:06;;;;;;;;;;;18.30;27.40;;;;;;1540655;77;845;-60
2023/03/28 11:17:28;;;;;;;;;;;18.40;27.30;;;;;;1545029;77;1669;-60
2023/03/28 11:19:41;;;;;;;;;;;18.40;27.10;;;;;;1540953;77;1711;-59
2023/03/28 11:22:01;;;;;;;;;;;18.40;27.10;;;;;;1528170;77;935;-59
2023/03/28 11:24:14;;;;;;;;;;;18.40;27.20;;;;;;1543474;77;1112;-59
2023/03/28 11:26:23;;;;;;;;;;;18.40;27.30;;;;;;1540566;77;2346;-59
2023/03/28 11:28:29;;;;;;;;;;;18.50;27.60;;;;;;1540656;77;717;-59
2023/03/28 11:30:32;;;;;;;;;;;18.50;27.40;;;;;;1533967;77;2007;-61
2023/03/28 11:32:36;;;;;;;;;;;18.50;27.40;;;;;;1538056;77;1945;-59
2023/03/28 11:34:39;;;;;;;;;;;18.50;27.20;;;;;;1543756;77;744;-61
2023/03/28 11:36:46;;;;;;;;;;;18.50;27.20;;;;;;1533414;77;601;-59
2023/03/28 11:38:50;;;;;;;;;;;18.50;27.10;;;;;;1536340;77;774;-58
2023/03/28 11:40:59;;;;;;;;;;;18.50;27.00;;;;;;1543422;77;694;-60
2023/03/28 11:43:03;;;;;;;;;;;18.50;26.80;;;;;;1527221;77;1673;-59
2023/03/28 11:45:06;;;;;;;;;;;18.50;27.00;;;;;;1539664;77;1743;-61
2023/03/28 11:47:11;;;;;;;;;;;18.50;26.90;;;;;;1534587;77;667;-59
2023/03/28 11:49:14;;;;;;;;;;;18.50;26.80;;;;;;1527737;77;681;-59
2023/03/28 11:51:18;;;;;;;;;;;18.50;27.00;;;;;;1528724;77;1142;-60
2023/03/28 11:53:23;;;;;;;;;;;18.50;27.00;;;;;;1531980;77;1924;-62
2023/03/28 11:55:26;;;;;;;;;;;18.50;26.90;;;;;;1542456;77;673;-58
2023/03/28 11:57:35;;;;;;;;;;;18.50;26.80;;;;;;1543198;77;1576;-59
2023/03/28 11:59:42;;;;;;;;;;;18.50;27.00;;;;;;1543289;77;1349;-59
2023/03/28 12:01:45;;;;;;;;;;;18.50;27.00;;;;;;1534292;77;691;-60
2023/03/28 12:03:48;;;;;;;;;;;18.50;26.90;;;;;;1535591;77;1162;-59
2023/03/28 12:05:52;;;;;;;;;;;18.50;26.70;;;;;;1531316;77;1029;-59
2023/03/28 12:07:58;;;;;;;;;;;18.50;26.70;;;;;;1541518;77;1884;-59
2023/03/28 12:10:18;;;;;;;;;;;18.40;25.90;;;;;;1531019;77;660;-59
2023/03/28 12:12:24;;;;;;;;;;;18.30;26.70;;;;;;1541867;77;1923;-58
2023/03/28 12:14:28;;;;;;;;;;;18.20;26.80;;;;;;1536948;77;775;-60
2023/03/28 12:16:31;;;;;;;;;;;18.20;27.30;;;;;;1544914;77;2112;-59
2023/03/28 12:18:34;;;;;;;;;;;18.20;27.00;;;;;;1539001;77;753;-59